Nearby METAR Reports

 

KSJC - San Jose, California, USA
Distance from station: NE 9mi, 14km
Updated: 2020-07-11 18:53
Clear
Clear
 Wind from NW
Wind: NW 13 mph , 20 km/h
Temperature: 81°F , 27°C
Dew Point: 50°F , 10°C
Humidity: 34%
Barometer: 29.96 inHg , 1014.6 hPa
Clouds: Clear
Visibility: 10 miles , 16 km
2020/07/12 01:53 KSJC 120153Z 31011KT 10SM CLR 27/10 A2996 RMK AO2 SLP143 T02720100
KNUQ - Moffett Nas/Mtn, California, USA
Distance from station: N 9mi, 14km
Updated: 2020-07-11 06:55
NOT Current
Clear
Clear
 Wind from calm
Wind: Calm
Temperature: 61°F , 16°C
Dew Point: 55°F , 13°C
Humidity: 83%
Barometer: 30.00 inHg , 1015.9 hPa
Clouds: Clear
Visibility: 10 miles , 16 km
2020/07/11 13:55 KNUQ 111355Z AUTO 00000KT 10SM CLR 16/13 A3000 RMK AO2
 
KPAO - Palo Alto, California, USA
Distance from station: NNW 14mi, 23km
Updated: 2020-07-11 16:00
NOT Current
Clear
Clear
 Wind from NNW
Wind: NNW 17 mph , 28 km/h
Temperature: 79°F , 26°C
Dew Point: 59°F , 15°C
Humidity: 51%
Barometer: 29.99 inHg , 1015.6 hPa
Clouds: Clear
Visibility: 10 miles , 16 km
2020/07/11 23:00 KPAO 112300Z 34015KT 10SM SKC 26/15 A2999 RMK LAST
KRHV - San Jose/Reid, California, USA
Distance from station: ENE 12mi, 19km
Updated: 2020-07-11 18:47
Clear
Clear
 Wind from WNW
Wind: WNW 12 mph , 19 km/h
Temperature: 86°F , 30°C
Dew Point: 48°F , 9°C
Humidity: 27%
Barometer: 29.95 inHg , 1014.2 hPa
Clouds: Clear
Visibility: 10 miles , 16 km
2020/07/12 01:47 KRHV 120147Z 30010KT 10SM SKC 30/09 A2995
 
KOAK - Oakland, California, USA
Distance from station: NNW 31mi, 50km
Updated: 2020-07-11 18:53
Clear
Clear
 Wind from WNW
Wind: WNW 15 mph , 24 km/h
Temperature: 72°F , 22°C
Dew Point: 54°F , 12°C
Humidity: 53%
Barometer: 29.96 inHg , 1014.6 hPa
Clouds: Clear
Visibility: 10 miles , 16 km
2020/07/12 01:53 KOAK 120153Z 29013KT 10SM CLR 22/12 A2996 RMK AO2 SLP145 T02220122
KSQL - San Carlos Airpo, California, USA
Distance from station: NW 21mi, 34km
Updated: 2020-07-11 18:51
Clear
Clear
 Wind from W
Wind: W 9 mph , 15 km/h
Temperature: 79°F , 26°C
Dew Point: 46°F , 8°C
Humidity: 32%
Barometer: 29.96 inHg , 1014.6 hPa
Clouds: Clear
Visibility: 10 miles , 16 km
2020/07/12 01:51 KSQL 120151Z 28008KT 10SM SKC 26/08 A2996
 
KSFO - San Francisco, California, USA
Distance from station: NW 30mi, 49km
Updated: 2020-07-11 18:56
Clear
Clear
 Wind from WNW
Wind: WNW 17 mph , 28 km/h, Gust: 28 mph , 44 km/h
Temperature: 66°F , 19°C
Dew Point: 50°F , 10°C
Humidity: 56%
Barometer: 29.96 inHg , 1014.6 hPa
Clouds: Clear
Visibility: 10 miles , 16 km
2020/07/12 01:56 KSFO 120156Z 30015G24KT 10SM CLR 19/10 A2996 RMK AO2 SLP145 T01940100
KE16 - San Martin, California, USA
Distance from station: ESE 27mi, 43km
Updated: 2020-07-11 19:30
Clear
Clear
 Wind from WNW
Wind: WNW 13 mph , 20 km/h, Gust: 18 mph , 30 km/h
Temperature: 90°F , 32°C
Dew Point: 28°F , -2°C
Humidity: 11%
Barometer: 29.96 inHg , 1014.6 hPa
Clouds: Clear
Visibility: 10 miles , 16 km
2020/07/12 02:30 KE16 120230Z AUTO 30011G16KT 10SM CLR 32/M02 A2996 RMK AO2 PWINO PNO
 
KWVI - Watsonville, California, USA
Distance from station: SSE 27mi, 44km
Updated: 2020-07-11 18:53
Clear
Clear
 Wind from S
Wind: S 8 mph , 13 km/h
Temperature: 63°F , 17°C
Dew Point: 54°F , 12°C
Humidity: 73%
Barometer: 29.99 inHg , 1015.6 hPa
Clouds: Clear
Visibility: 10 miles , 16 km
2020/07/12 01:53 KWVI 120153Z AUTO 18007KT 10SM CLR 17/12 A2999 RMK AO2 SLP154 T01720122
KHAF - Half Moon Bay, California, USA
Distance from station: WNW 31mi, 50km
Updated: 2020-07-11 19:40
Haze, Clear
Haze, Clear
 Wind from NW
Wind: NW 12 mph , 19 km/h
Temperature: 57°F , 14°C
Dew Point: 52°F , 11°C
Humidity: 82%
Barometer: 30.01 inHg , 1016.3 hPa
Summary: Haze
Clouds: Clear
Visibility: 5 miles , 8 km
2020/07/12 02:40 KHAF 120240Z AUTO 32010KT 5SM HZ CLR 14/11 A3001 RMK AO2
 
KHWD - Hayward, California, USA
Distance from station: N 28mi, 44km
Updated: 2020-07-11 18:54
Clear
Clear
 Wind from W
Wind: W 8 mph , 13 km/h
Temperature: 72°F , 22°C
Dew Point: 54°F , 12°C
Humidity: 53%
Barometer: 29.96 inHg , 1014.6 hPa
Clouds: Clear
Visibility: 10 miles , 16 km
2020/07/12 01:54 KHWD 120154Z 26007KT 10SM CLR 22/12 A2996 RMK AO2 SLP153 T02170122
KLVK - Livermore, California, USA
Distance from station: NNE 31mi, 51km
Updated: 2020-07-11 18:53
Clear
Clear
 Wind from WSW
Wind: WSW 12 mph , 19 km/h
Temperature: 91°F , 33°C
Dew Point: 34°F , 1°C
Humidity: 13%
Barometer: 29.93 inHg , 1013.5 hPa
Clouds: Clear
Visibility: 10 miles , 16 km
2020/07/12 01:53 KLVK 120153Z 25010KT 10SM CLR 33/01 A2993 RMK AO2 SLP131 T03280006